sensor_id;sensor_type;location;lat;lon;timestamp;P1;durP1;ratioP1;P2;durP2;ratioP2
84589;SDS011;75075;48.816;8.740;2024-01-07T00:01:38;1.70;;;0.90;;
84589;SDS011;75075;48.816;8.740;2024-01-07T00:06:38;1.70;;;0.82;;
84589;SDS011;75075;48.816;8.740;2024-01-07T00:11:39;1.55;;;0.70;;
84589;SDS011;75075;48.816;8.740;2024-01-07T00:16:40;1.70;;;0.90;;
84589;SDS011;75075;48.816;8.740;2024-01-07T00:21:40;1.42;;;0.73;;
84589;SDS011;75075;48.816;8.740;2024-01-07T00:26:40;1.83;;;0.90;;
84589;SDS011;75075;48.816;8.740;2024-01-07T00:31:41;1.57;;;0.80;;
84589;SDS011;75075;48.816;8.740;2024-01-07T00:36:41;1.77;;;0.70;;
84589;SDS011;75075;48.816;8.740;2024-01-07T00:41:41;1.48;;;0.60;;
84589;SDS011;75075;48.816;8.740;2024-01-07T00:46:41;1.52;;;0.75;;
84589;SDS011;75075;48.816;8.740;2024-01-07T00:51:42;1.58;;;0.70;;
84589;SDS011;75075;48.816;8.740;2024-01-07T00:56:42;1.50;;;0.70;;
84589;SDS011;75075;48.816;8.740;2024-01-07T01:01:42;1.42;;;0.70;;
84589;SDS011;75075;48.816;8.740;2024-01-07T01:06:42;1.38;;;0.70;;
84589;SDS011;75075;48.816;8.740;2024-01-07T01:11:43;1.38;;;0.60;;
84589;SDS011;75075;48.816;8.740;2024-01-07T01:16:44;1.25;;;0.65;;
84589;SDS011;75075;48.816;8.740;2024-01-07T01:21:44;1.50;;;0.77;;
84589;SDS011;75075;48.816;8.740;2024-01-07T01:26:44;1.27;;;0.60;;
84589;SDS011;75075;48.816;8.740;2024-01-07T01:31:44;1.30;;;0.63;;
84589;SDS011;75075;48.816;8.740;2024-01-07T01:36:45;0.95;;;0.50;;
84589;SDS011;75075;48.816;8.740;2024-01-07T01:41:45;1.23;;;0.60;;
84589;SDS011;75075;48.816;8.740;2024-01-07T01:46:45;1.13;;;0.63;;
84589;SDS011;75075;48.816;8.740;2024-01-07T01:51:46;1.67;;;0.65;;
84589;SDS011;75075;48.816;8.740;2024-01-07T01:56:47;1.55;;;0.70;;
84589;SDS011;75075;48.816;8.740;2024-01-07T02:01:47;1.38;;;0.75;;
84589;SDS011;75075;48.816;8.740;2024-01-07T02:06:48;1.27;;;0.67;;
84589;SDS011;75075;48.816;8.740;2024-01-07T02:12:01;1.10;;;0.57;;
84589;SDS011;75075;48.816;8.740;2024-01-07T02:17:03;1.48;;;0.63;;
84589;SDS011;75075;48.816;8.740;2024-01-07T02:22:03;1.25;;;0.60;;
84589;SDS011;75075;48.816;8.740;2024-01-07T02:27:03;1.15;;;0.50;;
84589;SDS011;75075;48.816;8.740;2024-01-07T02:32:04;1.40;;;0.60;;
84589;SDS011;75075;48.816;8.740;2024-01-07T02:37:05;1.20;;;0.60;;
84589;SDS011;75075;48.816;8.740;2024-01-07T02:42:05;1.20;;;0.50;;
84589;SDS011;75075;48.816;8.740;2024-01-07T02:47:05;1.02;;;0.47;;
84589;SDS011;75075;48.816;8.740;2024-01-07T02:52:05;1.05;;;0.40;;
84589;SDS011;75075;48.816;8.740;2024-01-07T02:57:06;1.02;;;0.50;;
84589;SDS011;75075;48.816;8.740;2024-01-07T03:02:06;1.42;;;0.60;;
84589;SDS011;75075;48.816;8.740;2024-01-07T03:07:06;1.02;;;0.52;;
84589;SDS011;75075;48.816;8.740;2024-01-07T03:12:06;0.95;;;0.50;;
84589;SDS011;75075;48.816;8.740;2024-01-07T03:17:07;0.90;;;0.50;;
84589;SDS011;75075;48.816;8.740;2024-01-07T03:22:07;0.80;;;0.40;;
84589;SDS011;75075;48.816;8.740;2024-01-07T03:27:07;0.93;;;0.50;;
84589;SDS011;75075;48.816;8.740;2024-01-07T03:32:08;1.20;;;0.52;;
84589;SDS011;75075;48.816;8.740;2024-01-07T03:37:08;0.82;;;0.38;;
84589;SDS011;75075;48.816;8.740;2024-01-07T03:42:08;1.00;;;0.40;;
84589;SDS011;75075;48.816;8.740;2024-01-07T03:47:11;1.05;;;0.50;;
84589;SDS011;75075;48.816;8.740;2024-01-07T03:52:11;1.20;;;0.50;;
84589;SDS011;75075;48.816;8.740;2024-01-07T03:57:12;1.02;;;0.50;;
84589;SDS011;75075;48.816;8.740;2024-01-07T04:02:13;0.95;;;0.52;;
84589;SDS011;75075;48.816;8.740;2024-01-07T04:07:16;1.00;;;0.40;;
84589;SDS011;75075;48.816;8.740;2024-01-07T04:12:16;0.80;;;0.40;;
84589;SDS011;75075;48.816;8.740;2024-01-07T04:17:16;0.80;;;0.40;;
84589;SDS011;75075;48.816;8.740;2024-01-07T04:22:16;0.93;;;0.40;;
84589;SDS011;75075;48.816;8.740;2024-01-07T04:27:17;0.90;;;0.40;;
84589;SDS011;75075;48.816;8.740;2024-01-07T04:32:17;1.00;;;0.50;;
84589;SDS011;75075;48.816;8.740;2024-01-07T04:37:17;0.95;;;0.47;;
84589;SDS011;75075;48.816;8.740;2024-01-07T04:42:18;0.80;;;0.40;;
84589;SDS011;75075;48.816;8.740;2024-01-07T04:47:31;1.10;;;0.50;;
84589;SDS011;75075;48.816;8.740;2024-01-07T04:52:34;1.08;;;0.50;;
84589;SDS011;75075;48.816;8.740;2024-01-07T04:57:34;0.90;;;0.43;;
84589;SDS011;75075;48.816;8.740;2024-01-07T05:02:34;0.85;;;0.43;;
84589;SDS011;75075;48.816;8.740;2024-01-07T05:07:35;0.90;;;0.50;;
84589;SDS011;75075;48.816;8.740;2024-01-07T05:12:35;0.83;;;0.40;;
84589;SDS011;75075;48.816;8.740;2024-01-07T05:17:36;0.80;;;0.40;;
84589;SDS011;75075;48.816;8.740;2024-01-07T05:22:36;1.20;;;0.40;;
84589;SDS011;75075;48.816;8.740;2024-01-07T05:27:36;0.80;;;0.40;;
84589;SDS011;75075;48.816;8.740;2024-01-07T05:32:36;1.00;;;0.50;;
84589;SDS011;75075;48.816;8.740;2024-01-07T05:37:37;1.40;;;0.50;;
84589;SDS011;75075;48.816;8.740;2024-01-07T05:42:37;0.95;;;0.40;;
84589;SDS011;75075;48.816;8.740;2024-01-07T05:47:38;1.50;;;0.50;;
84589;SDS011;75075;48.816;8.740;2024-01-07T05:52:38;1.00;;;0.50;;
84589;SDS011;75075;48.816;8.740;2024-01-07T05:57:38;0.60;;;0.40;;
84589;SDS011;75075;48.816;8.740;2024-01-07T06:02:39;0.90;;;0.40;;
84589;SDS011;75075;48.816;8.740;2024-01-07T06:07:39;1.13;;;0.52;;
84589;SDS011;75075;48.816;8.740;2024-01-07T06:12:40;1.08;;;0.50;;
84589;SDS011;75075;48.816;8.740;2024-01-07T06:17:40;1.20;;;0.50;;
84589;SDS011;75075;48.816;8.740;2024-01-07T06:22:40;1.25;;;0.50;;
84589;SDS011;75075;48.816;8.740;2024-01-07T06:27:41;1.23;;;0.63;;
84589;SDS011;75075;48.816;8.740;2024-01-07T06:32:41;1.27;;;0.55;;
84589;SDS011;75075;48.816;8.740;2024-01-07T06:37:41;1.50;;;0.60;;
84589;SDS011;75075;48.816;8.740;2024-01-07T06:42:42;1.15;;;0.60;;
84589;SDS011;75075;48.816;8.740;2024-01-07T06:47:43;1.40;;;0.70;;
84589;SDS011;75075;48.816;8.740;2024-01-07T06:52:44;1.40;;;0.70;;
84589;SDS011;75075;48.816;8.740;2024-01-07T06:57:44;1.40;;;0.70;;
84589;SDS011;75075;48.816;8.740;2024-01-07T07:02:44;1.08;;;0.50;;
84589;SDS011;75075;48.816;8.740;2024-01-07T07:07:44;1.38;;;0.70;;
84589;SDS011;75075;48.816;8.740;2024-01-07T07:12:45;1.50;;;0.80;;
84589;SDS011;75075;48.816;8.740;2024-01-07T07:17:45;1.33;;;0.68;;
84589;SDS011;75075;48.816;8.740;2024-01-07T07:22:46;1.45;;;0.80;;
84589;SDS011;75075;48.816;8.740;2024-01-07T07:27:46;1.30;;;0.70;;
84589;SDS011;75075;48.816;8.740;2024-01-07T07:32:46;1.90;;;0.82;;
84589;SDS011;75075;48.816;8.740;2024-01-07T07:37:46;1.75;;;0.70;;
84589;SDS011;75075;48.816;8.740;2024-01-07T07:42:47;1.58;;;0.85;;
84589;SDS011;75075;48.816;8.740;2024-01-07T07:47:48;1.95;;;1.00;;
84589;SDS011;75075;48.816;8.740;2024-01-07T07:52:49;1.90;;;1.00;;
84589;SDS011;75075;48.816;8.740;2024-01-07T07:57:49;1.70;;;0.90;;
84589;SDS011;75075;48.816;8.740;2024-01-07T08:02:51;2.35;;;1.00;;
84589;SDS011;75075;48.816;8.740;2024-01-07T08:07:52;2.28;;;0.90;;
84589;SDS011;75075;48.816;8.740;2024-01-07T08:12:54;2.30;;;1.00;;
84589;SDS011;75075;48.816;8.740;2024-01-07T08:17:54;2.28;;;1.08;;
84589;SDS011;75075;48.816;8.740;2024-01-07T08:22:54;2.08;;;1.05;;
84589;SDS011;75075;48.816;8.740;2024-01-07T08:27:55;1.70;;;0.93;;
84589;SDS011;75075;48.816;8.740;2024-01-07T08:32:55;2.00;;;1.00;;
84589;SDS011;75075;48.816;8.740;2024-01-07T08:37:56;2.08;;;1.20;;
84589;SDS011;75075;48.816;8.740;2024-01-07T08:42:56;2.00;;;0.98;;
84589;SDS011;75075;48.816;8.740;2024-01-07T08:47:56;1.93;;;0.93;;
84589;SDS011;75075;48.816;8.740;2024-01-07T08:52:56;2.30;;;1.17;;
84589;SDS011;75075;48.816;8.740;2024-01-07T08:57:57;2.30;;;1.07;;
84589;SDS011;75075;48.816;8.740;2024-01-07T09:02:57;2.20;;;1.20;;
84589;SDS011;75075;48.816;8.740;2024-01-07T09:07:57;2.20;;;1.33;;
84589;SDS011;75075;48.816;8.740;2024-01-07T09:12:58;2.78;;;1.30;;
84589;SDS011;75075;48.816;8.740;2024-01-07T09:17:58;3.35;;;1.30;;
84589;SDS011;75075;48.816;8.740;2024-01-07T09:22:58;3.08;;;1.52;;
84589;SDS011;75075;48.816;8.740;2024-01-07T09:27:59;2.38;;;1.30;;
84589;SDS011;75075;48.816;8.740;2024-01-07T09:32:59;6.63;;;1.50;;
84589;SDS011;75075;48.816;8.740;2024-01-07T09:37:59;3.00;;;1.00;;
84589;SDS011;75075;48.816;8.740;2024-01-07T09:43:00;2.60;;;1.30;;
84589;SDS011;75075;48.816;8.740;2024-01-07T09:48:00;2.33;;;1.30;;
84589;SDS011;75075;48.816;8.740;2024-01-07T09:53:01;2.50;;;1.50;;
84589;SDS011;75075;48.816;8.740;2024-01-07T09:58:02;3.03;;;1.40;;
84589;SDS011;75075;48.816;8.740;2024-01-07T10:03:03;3.13;;;1.40;;
84589;SDS011;75075;48.816;8.740;2024-01-07T10:08:03;2.75;;;1.92;;
84589;SDS011;75075;48.816;8.740;2024-01-07T10:13:04;3.08;;;1.60;;
84589;SDS011;75075;48.816;8.740;2024-01-07T10:18:06;3.30;;;1.67;;
84589;SDS011;75075;48.816;8.740;2024-01-07T10:23:07;2.70;;;1.65;;
84589;SDS011;75075;48.816;8.740;2024-01-07T10:28:08;2.88;;;1.60;;
84589;SDS011;75075;48.816;8.740;2024-01-07T10:33:08;3.05;;;1.63;;
84589;SDS011;75075;48.816;8.740;2024-01-07T10:38:09;2.75;;;1.50;;
84589;SDS011;75075;48.816;8.740;2024-01-07T10:43:09;3.13;;;1.60;;
84589;SDS011;75075;48.816;8.740;2024-01-07T10:48:09;3.38;;;1.70;;
84589;SDS011;75075;48.816;8.740;2024-01-07T10:53:13;2.80;;;1.60;;
84589;SDS011;75075;48.816;8.740;2024-01-07T10:58:22;2.75;;;1.40;;
84589;SDS011;75075;48.816;8.740;2024-01-07T11:03:40;2.50;;;1.50;;
84589;SDS011;75075;48.816;8.740;2024-01-07T11:08:52;4.45;;;1.85;;
84589;SDS011;75075;48.816;8.740;2024-01-07T11:13:58;2.50;;;1.60;;
84589;SDS011;75075;48.816;8.740;2024-01-07T11:18:58;3.25;;;1.65;;
84589;SDS011;75075;48.816;8.740;2024-01-07T11:23:59;2.97;;;1.60;;
84589;SDS011;75075;48.816;8.740;2024-01-07T11:28:59;2.95;;;1.65;;
84589;SDS011;75075;48.816;8.740;2024-01-07T11:34:00;3.38;;;1.70;;
84589;SDS011;75075;48.816;8.740;2024-01-07T11:39:00;3.17;;;1.60;;
84589;SDS011;75075;48.816;8.740;2024-01-07T11:44:02;2.65;;;1.55;;
84589;SDS011;75075;48.816;8.740;2024-01-07T11:49:02;3.03;;;1.55;;
84589;SDS011;75075;48.816;8.740;2024-01-07T11:54:03;2.45;;;1.50;;
84589;SDS011;75075;48.816;8.740;2024-01-07T11:59:04;2.72;;;1.58;;
84589;SDS011;75075;48.816;8.740;2024-01-07T12:04:06;3.20;;;1.63;;
84589;SDS011;75075;48.816;8.740;2024-01-07T12:09:07;2.35;;;1.40;;
84589;SDS011;75075;48.816;8.740;2024-01-07T12:14:12;2.88;;;1.60;;
84589;SDS011;75075;48.816;8.740;2024-01-07T12:19:12;2.80;;;1.75;;
84589;SDS011;75075;48.816;8.740;2024-01-07T12:24:13;3.42;;;1.80;;
84589;SDS011;75075;48.816;8.740;2024-01-07T12:29:13;3.10;;;1.80;;
84589;SDS011;75075;48.816;8.740;2024-01-07T12:34:14;3.17;;;1.83;;
84589;SDS011;75075;48.816;8.740;2024-01-07T12:39:14;3.03;;;1.67;;
84589;SDS011;75075;48.816;8.740;2024-01-07T12:44:14;3.55;;;2.03;;
84589;SDS011;75075;48.816;8.740;2024-01-07T12:49:15;2.55;;;1.60;;
84589;SDS011;75075;48.816;8.740;2024-01-07T12:54:15;3.53;;;1.80;;
84589;SDS011;75075;48.816;8.740;2024-01-07T12:59:16;3.17;;;1.90;;
84589;SDS011;75075;48.816;8.740;2024-01-07T13:04:16;3.35;;;1.98;;
84589;SDS011;75075;48.816;8.740;2024-01-07T13:09:17;2.97;;;1.75;;
84589;SDS011;75075;48.816;8.740;2024-01-07T13:14:17;2.90;;;1.87;;
84589;SDS011;75075;48.816;8.740;2024-01-07T13:19:17;3.53;;;2.00;;
84589;SDS011;75075;48.816;8.740;2024-01-07T13:24:18;2.90;;;1.73;;
84589;SDS011;75075;48.816;8.740;2024-01-07T13:29:18;3.13;;;1.98;;
84589;SDS011;75075;48.816;8.740;2024-01-07T13:34:18;3.30;;;1.90;;
84589;SDS011;75075;48.816;8.740;2024-01-07T13:39:19;3.63;;;2.05;;
84589;SDS011;75075;48.816;8.740;2024-01-07T13:44:21;3.55;;;2.30;;
84589;SDS011;75075;48.816;8.740;2024-01-07T13:49:21;3.57;;;2.10;;
84589;SDS011;75075;48.816;8.740;2024-01-07T13:54:21;3.83;;;2.28;;
84589;SDS011;75075;48.816;8.740;2024-01-07T13:59:22;2.67;;;1.77;;
84589;SDS011;75075;48.816;8.740;2024-01-07T14:04:23;3.28;;;2.00;;
84589;SDS011;75075;48.816;8.740;2024-01-07T14:09:24;3.65;;;2.17;;
84589;SDS011;75075;48.816;8.740;2024-01-07T14:14:25;3.15;;;1.98;;
84589;SDS011;75075;48.816;8.740;2024-01-07T14:19:25;3.05;;;1.80;;
84589;SDS011;75075;48.816;8.740;2024-01-07T14:24:26;3.22;;;2.05;;
84589;SDS011;75075;48.816;8.740;2024-01-07T14:29:26;3.40;;;2.20;;
84589;SDS011;75075;48.816;8.740;2024-01-07T14:34:26;4.20;;;2.47;;
84589;SDS011;75075;48.816;8.740;2024-01-07T14:39:26;2.92;;;1.90;;
84589;SDS011;75075;48.816;8.740;2024-01-07T14:44:27;3.08;;;1.95;;
84589;SDS011;75075;48.816;8.740;2024-01-07T14:49:27;3.67;;;2.25;;
84589;SDS011;75075;48.816;8.740;2024-01-07T14:54:28;3.78;;;2.47;;
84589;SDS011;75075;48.816;8.740;2024-01-07T14:59:31;3.33;;;2.10;;
84589;SDS011;75075;48.816;8.740;2024-01-07T15:04:31;3.90;;;2.42;;
84589;SDS011;75075;48.816;8.740;2024-01-07T15:09:31;3.58;;;2.22;;
84589;SDS011;75075;48.816;8.740;2024-01-07T15:14:32;3.72;;;2.60;;
84589;SDS011;75075;48.816;8.740;2024-01-07T15:19:32;3.10;;;2.00;;
84589;SDS011;75075;48.816;8.740;2024-01-07T15:24:32;3.70;;;2.40;;
84589;SDS011;75075;48.816;8.740;2024-01-07T15:29:33;3.15;;;2.25;;
84589;SDS011;75075;48.816;8.740;2024-01-07T15:34:33;3.95;;;2.35;;
84589;SDS011;75075;48.816;8.740;2024-01-07T15:39:35;3.63;;;2.20;;
84589;SDS011;75075;48.816;8.740;2024-01-07T15:44:35;4.78;;;2.30;;
84589;SDS011;75075;48.816;8.740;2024-01-07T15:49:35;4.07;;;2.50;;
84589;SDS011;75075;48.816;8.740;2024-01-07T15:54:36;3.30;;;1.97;;
84589;SDS011;75075;48.816;8.740;2024-01-07T15:59:39;4.45;;;2.42;;
84589;SDS011;75075;48.816;8.740;2024-01-07T16:04:41;3.97;;;2.45;;
84589;SDS011;75075;48.816;8.740;2024-01-07T16:09:41;4.40;;;2.20;;
84589;SDS011;75075;48.816;8.740;2024-01-07T16:14:41;3.15;;;2.25;;
84589;SDS011;75075;48.816;8.740;2024-01-07T16:19:42;4.22;;;2.42;;
84589;SDS011;75075;48.816;8.740;2024-01-07T16:24:43;3.45;;;2.25;;
84589;SDS011;75075;48.816;8.740;2024-01-07T16:29:43;3.63;;;2.30;;
84589;SDS011;75075;48.816;8.740;2024-01-07T16:34:43;3.88;;;2.50;;
84589;SDS011;75075;48.816;8.740;2024-01-07T16:39:44;4.00;;;2.50;;
84589;SDS011;75075;48.816;8.740;2024-01-07T16:44:44;3.28;;;2.17;;
84589;SDS011;75075;48.816;8.740;2024-01-07T16:49:44;3.85;;;2.25;;
84589;SDS011;75075;48.816;8.740;2024-01-07T16:54:44;3.92;;;2.30;;
84589;SDS011;75075;48.816;8.740;2024-01-07T16:59:46;4.47;;;2.30;;
84589;SDS011;75075;48.816;8.740;2024-01-07T17:04:47;4.57;;;2.60;;
84589;SDS011;75075;48.816;8.740;2024-01-07T17:09:47;4.07;;;2.53;;
84589;SDS011;75075;48.816;8.740;2024-01-07T17:14:47;4.10;;;2.30;;
84589;SDS011;75075;48.816;8.740;2024-01-07T17:19:51;4.50;;;2.65;;
84589;SDS011;75075;48.816;8.740;2024-01-07T17:24:51;4.10;;;2.50;;
84589;SDS011;75075;48.816;8.740;2024-01-07T17:29:52;3.73;;;2.43;;
84589;SDS011;75075;48.816;8.740;2024-01-07T17:34:52;3.72;;;2.30;;
84589;SDS011;75075;48.816;8.740;2024-01-07T17:39:54;3.95;;;2.30;;
84589;SDS011;75075;48.816;8.740;2024-01-07T17:44:54;4.30;;;2.22;;
84589;SDS011;75075;48.816;8.740;2024-01-07T17:49:54;4.35;;;2.30;;
84589;SDS011;75075;48.816;8.740;2024-01-07T17:54:56;4.47;;;2.50;;
84589;SDS011;75075;48.816;8.740;2024-01-07T18:00:00;3.28;;;2.30;;
84589;SDS011;75075;48.816;8.740;2024-01-07T18:05:05;4.03;;;2.20;;
84589;SDS011;75075;48.816;8.740;2024-01-07T18:10:06;3.83;;;2.38;;
84589;SDS011;75075;48.816;8.740;2024-01-07T18:15:10;3.25;;;2.10;;
84589;SDS011;75075;48.816;8.740;2024-01-07T18:20:10;3.65;;;2.22;;
84589;SDS011;75075;48.816;8.740;2024-01-07T18:25:11;4.10;;;2.55;;
84589;SDS011;75075;48.816;8.740;2024-01-07T18:30:11;4.05;;;2.10;;
84589;SDS011;75075;48.816;8.740;2024-01-07T18:35:12;3.67;;;2.20;;
84589;SDS011;75075;48.816;8.740;2024-01-07T18:40:13;3.88;;;2.40;;
84589;SDS011;75075;48.816;8.740;2024-01-07T18:45:13;3.60;;;2.20;;
84589;SDS011;75075;48.816;8.740;2024-01-07T18:50:14;3.75;;;2.08;;
84589;SDS011;75075;48.816;8.740;2024-01-07T18:55:15;3.95;;;2.30;;
84589;SDS011;75075;48.816;8.740;2024-01-07T19:00:17;4.00;;;2.35;;
84589;SDS011;75075;48.816;8.740;2024-01-07T19:05:17;3.47;;;2.05;;
84589;SDS011;75075;48.816;8.740;2024-01-07T19:10:18;4.27;;;2.40;;
84589;SDS011;75075;48.816;8.740;2024-01-07T19:15:18;3.42;;;1.85;;
84589;SDS011;75075;48.816;8.740;2024-01-07T19:20:18;4.07;;;2.10;;
84589;SDS011;75075;48.816;8.740;2024-01-07T19:25:19;3.13;;;1.98;;
84589;SDS011;75075;48.816;8.740;2024-01-07T19:30:19;4.07;;;2.20;;
84589;SDS011;75075;48.816;8.740;2024-01-07T19:35:19;3.63;;;2.00;;
84589;SDS011;75075;48.816;8.740;2024-01-07T19:40:19;3.22;;;1.80;;
84589;SDS011;75075;48.816;8.740;2024-01-07T19:45:20;3.47;;;1.90;;
84589;SDS011;75075;48.816;8.740;2024-01-07T19:50:20;3.17;;;2.00;;
84589;SDS011;75075;48.816;8.740;2024-01-07T19:55:21;2.72;;;1.70;;
84589;SDS011;75075;48.816;8.740;2024-01-07T20:00:21;3.70;;;2.17;;
84589;SDS011;75075;48.816;8.740;2024-01-07T20:05:21;3.58;;;1.70;;
84589;SDS011;75075;48.816;8.740;2024-01-07T20:10:22;3.30;;;1.98;;
84589;SDS011;75075;48.816;8.740;2024-01-07T20:15:22;3.15;;;1.92;;
84589;SDS011;75075;48.816;8.740;2024-01-07T20:20:22;2.78;;;1.83;;
84589;SDS011;75075;48.816;8.740;2024-01-07T20:25:22;2.95;;;1.60;;
84589;SDS011;75075;48.816;8.740;2024-01-07T20:30:23;2.85;;;1.58;;
84589;SDS011;75075;48.816;8.740;2024-01-07T20:35:24;3.13;;;1.88;;
84589;SDS011;75075;48.816;8.740;2024-01-07T20:40:24;2.93;;;1.60;;
84589;SDS011;75075;48.816;8.740;2024-01-07T20:45:24;2.60;;;1.50;;
84589;SDS011;75075;48.816;8.740;2024-01-07T20:50:25;3.10;;;1.42;;
84589;SDS011;75075;48.816;8.740;2024-01-07T20:55:26;2.63;;;1.55;;
84589;SDS011;75075;48.816;8.740;2024-01-07T21:00:27;2.80;;;1.50;;
84589;SDS011;75075;48.816;8.740;2024-01-07T21:05:27;3.10;;;1.58;;
84589;SDS011;75075;48.816;8.740;2024-01-07T21:10:28;2.80;;;1.50;;
84589;SDS011;75075;48.816;8.740;2024-01-07T21:15:29;2.70;;;1.67;;
84589;SDS011;75075;48.816;8.740;2024-01-07T21:20:30;2.50;;;1.50;;
84589;SDS011;75075;48.816;8.740;2024-01-07T21:25:31;2.47;;;1.40;;
84589;SDS011;75075;48.816;8.740;2024-01-07T21:30:32;2.22;;;1.40;;
84589;SDS011;75075;48.816;8.740;2024-01-07T21:35:33;2.38;;;1.30;;
84589;SDS011;75075;48.816;8.740;2024-01-07T21:40:33;2.17;;;1.27;;
84589;SDS011;75075;48.816;8.740;2024-01-07T21:45:33;3.03;;;1.60;;
84589;SDS011;75075;48.816;8.740;2024-01-07T21:50:34;2.65;;;1.42;;
84589;SDS011;75075;48.816;8.740;2024-01-07T21:55:34;2.67;;;1.30;;
84589;SDS011;75075;48.816;8.740;2024-01-07T22:00:37;2.47;;;1.40;;
84589;SDS011;75075;48.816;8.740;2024-01-07T22:05:37;2.83;;;1.30;;
84589;SDS011;75075;48.816;8.740;2024-01-07T22:10:37;2.78;;;1.42;;
84589;SDS011;75075;48.816;8.740;2024-01-07T22:15:38;2.25;;;1.25;;
84589;SDS011;75075;48.816;8.740;2024-01-07T22:20:38;2.10;;;1.17;;
84589;SDS011;75075;48.816;8.740;2024-01-07T22:25:39;2.45;;;1.30;;
84589;SDS011;75075;48.816;8.740;2024-01-07T22:30:39;1.80;;;1.10;;
84589;SDS011;75075;48.816;8.740;2024-01-07T22:35:40;2.35;;;1.30;;
84589;SDS011;75075;48.816;8.740;2024-01-07T22:40:40;2.15;;;1.20;;
84589;SDS011;75075;48.816;8.740;2024-01-07T22:45:43;2.00;;;1.15;;
84589;SDS011;75075;48.816;8.740;2024-01-07T22:50:43;2.00;;;1.10;;
84589;SDS011;75075;48.816;8.740;2024-01-07T22:55:44;2.25;;;1.20;;
84589;SDS011;75075;48.816;8.740;2024-01-07T23:00:45;1.80;;;1.05;;
84589;SDS011;75075;48.816;8.740;2024-01-07T23:05:45;1.95;;;1.15;;
84589;SDS011;75075;48.816;8.740;2024-01-07T23:10:45;2.47;;;1.30;;
84589;SDS011;75075;48.816;8.740;2024-01-07T23:15:47;2.03;;;1.13;;
84589;SDS011;75075;48.816;8.740;2024-01-07T23:20:47;2.10;;;1.20;;
84589;SDS011;75075;48.816;8.740;2024-01-07T23:25:47;2.33;;;1.20;;
84589;SDS011;75075;48.816;8.740;2024-01-07T23:30:48;2.07;;;1.10;;
84589;SDS011;75075;48.816;8.740;2024-01-07T23:35:48;2.30;;;1.20;;
84589;SDS011;75075;48.816;8.740;2024-01-07T23:40:48;2.55;;;1.30;;
84589;SDS011;75075;48.816;8.740;2024-01-07T23:45:48;1.95;;;1.00;;
84589;SDS011;75075;48.816;8.740;2024-01-07T23:50:48;2.13;;;1.10;;
84589;SDS011;75075;48.816;8.740;2024-01-07T23:55:49;2.58;;;1.10;;
